createdAt,value
2023-02-11T00:01:36.218Z,33.63
2023-02-11T00:04:07.917Z,32.95
2023-02-11T00:06:35.978Z,31.38
2023-02-11T00:09:09.036Z,30.98
2023-02-11T00:11:38.288Z,35.13
2023-02-11T00:14:09.954Z,31.05
2023-02-11T00:16:36.723Z,32.85
2023-02-11T00:19:08.587Z,31.20
2023-02-11T00:21:37.778Z,31.65
2023-02-11T00:24:07.090Z,31.58
2023-02-11T00:26:37.599Z,36.83
2023-02-11T00:29:07.514Z,29.63
2023-02-11T00:31:39.089Z,30.88
2023-02-11T00:34:05.812Z,27.35
2023-02-11T00:36:32.578Z,31.60
2023-02-11T00:39:02.109Z,35.83
2023-02-11T00:41:29.664Z,30.13
2023-02-11T00:43:58.695Z,31.65
2023-02-11T00:46:27.599Z,30.75
2023-02-11T00:48:57.898Z,29.33
2023-02-11T00:51:30.367Z,34.65
2023-02-11T00:53:59.542Z,37.55
2023-02-11T00:56:26.781Z,32.28
2023-02-11T00:58:55.862Z,30.80
2023-02-11T01:01:22.983Z,35.45
2023-02-11T01:03:54.403Z,33.40
2023-02-11T01:06:21.252Z,32.78
2023-02-11T01:08:47.920Z,36.70
2023-02-11T01:11:20.700Z,33.55
2023-02-11T01:13:49.171Z,33.92
2023-02-11T01:16:19.490Z,31.95
2023-02-11T01:18:46.987Z,31.92
2023-02-11T01:21:18.569Z,34.45
2023-02-11T01:23:45.246Z,32.97
2023-02-11T01:26:14.176Z,31.40
2023-02-11T01:28:43.245Z,34.10
2023-02-11T01:31:10.159Z,31.70
2023-02-11T01:33:39.376Z,30.20
2023-02-11T01:36:07.488Z,32.78
2023-02-11T01:38:35.104Z,34.50
2023-02-11T01:41:05.125Z,33.70
2023-02-11T01:43:38.469Z,32.22
2023-02-11T01:46:17.511Z,30.80
2023-02-11T01:48:49.271Z,34.95
2023-02-11T01:51:22.269Z,34.78
2023-02-11T01:54:09.155Z,34.47
2023-02-11T01:56:58.070Z,39.20
2023-02-11T01:59:31.702Z,35.67
2023-02-11T02:02:07.275Z,36.83
2023-02-11T02:04:42.114Z,39.90
2023-02-11T02:07:14.524Z,44.80
2023-02-11T02:09:46.209Z,40.35
2023-02-11T02:12:15.068Z,42.00
2023-02-11T02:14:44.071Z,39.83
2023-02-11T02:17:25.151Z,39.38
2023-02-11T02:20:14.662Z,37.20
2023-02-11T02:22:58.035Z,41.25
2023-02-11T02:25:27.743Z,40.05
2023-02-11T02:28:33.793Z,43.20
2023-02-11T02:31:19.231Z,42.67
2023-02-11T02:34:01.413Z,37.53
2023-02-11T02:36:48.467Z,36.63
2023-02-11T02:39:36.444Z,41.38
2023-02-11T02:42:07.102Z,40.13
2023-02-11T02:44:36.470Z,38.83
2023-02-11T02:47:03.330Z,38.58
2023-02-11T02:49:30.036Z,39.45
2023-02-11T02:52:34.919Z,39.60
2023-02-11T02:55:22.398Z,39.17
2023-02-11T02:58:25.270Z,39.72
2023-02-11T03:01:37.453Z,39.50
2023-02-11T03:04:10.363Z,42.97
2023-02-11T03:06:49.830Z,40.97
2023-02-11T03:09:26.172Z,43.05
2023-02-11T03:11:56.035Z,38.92
2023-02-11T03:14:28.259Z,36.90
2023-02-11T03:17:00.664Z,41.95
2023-02-11T03:19:34.564Z,41.13
2023-02-11T03:22:05.311Z,45.40
2023-02-11T03:24:36.218Z,46.17
2023-02-11T03:27:25.816Z,43.13
2023-02-11T03:29:56.365Z,53.20
2023-02-11T03:32:31.868Z,48.30
2023-02-11T03:35:19.280Z,41.15
2023-02-11T03:38:02.588Z,46.78
2023-02-11T03:40:35.162Z,46.00
2023-02-11T03:43:17.269Z,42.28
2023-02-11T03:45:48.660Z,45.88
2023-02-11T03:48:23.489Z,46.25
2023-02-11T03:50:56.545Z,47.35
2023-02-11T03:53:23.460Z,35.88
2023-02-11T03:55:53.130Z,43.75
2023-02-11T03:58:20.029Z,38.45
2023-02-11T04:00:46.913Z,42.35
2023-02-11T04:03:19.004Z,37.60
2023-02-11T04:05:48.788Z,40.42
2023-02-11T04:08:15.715Z,39.65
2023-02-11T04:10:42.353Z,41.17
2023-02-11T04:13:09.021Z,38.38
2023-02-11T04:15:38.257Z,37.65
2023-02-11T04:18:07.111Z,42.22
2023-02-11T04:20:33.846Z,39.50
2023-02-11T04:23:00.683Z,36.10
2023-02-11T04:25:29.867Z,40.78
2023-02-11T04:27:56.601Z,41.08
2023-02-11T04:30:28.004Z,41.65
2023-02-11T04:32:56.905Z,41.42
2023-02-11T04:35:25.793Z,39.92
2023-02-11T04:37:52.425Z,37.00
2023-02-11T04:40:19.246Z,40.65
2023-02-11T04:42:50.611Z,37.40
2023-02-11T04:45:22.118Z,34.13
2023-02-11T04:47:53.465Z,41.45
2023-02-11T04:50:20.267Z,35.63
2023-02-11T04:52:49.407Z,39.40
2023-02-11T04:55:16.162Z,35.10
2023-02-11T04:57:42.901Z,38.40
2023-02-11T05:00:12.437Z,38.35
2023-02-11T05:02:39.084Z,38.95
2023-02-11T05:05:08.915Z,35.42
2023-02-11T05:07:40.285Z,40.45
2023-02-11T05:10:06.998Z,41.33
2023-02-11T05:12:33.642Z,36.05
2023-02-11T05:15:02.552Z,40.90
2023-02-11T05:17:31.438Z,35.22
2023-02-11T05:19:58.081Z,40.42
2023-02-11T05:22:24.830Z,43.42
2023-02-11T05:24:51.473Z,44.10
2023-02-11T05:27:20.326Z,35.20
2023-02-11T05:29:46.974Z,40.40
2023-02-11T05:32:15.919Z,38.22
2023-02-11T05:34:44.885Z,38.20
2023-02-11T05:37:11.575Z,41.38
2023-02-11T05:39:38.340Z,42.92
2023-02-11T05:42:05.073Z,38.70
2023-02-11T05:44:31.728Z,40.63
2023-02-11T05:46:58.407Z,41.35
2023-02-11T05:49:25.204Z,38.45
2023-02-11T05:51:53.973Z,40.45
2023-02-11T05:54:22.877Z,43.47
2023-02-11T05:56:49.534Z,48.20
2023-02-11T05:59:18.553Z,41.67
2023-02-11T06:01:45.221Z,41.88
2023-02-11T06:04:11.890Z,48.40
2023-02-11T06:06:38.620Z,46.78
2023-02-11T06:09:07.553Z,41.78
2023-02-11T06:11:34.209Z,41.40
2023-02-11T06:14:03.815Z,48.17
2023-02-11T06:16:30.593Z,38.45
2023-02-11T06:18:57.360Z,47.10
2023-02-11T06:21:36.364Z,47.03
2023-02-11T06:24:09.383Z,43.35
2023-02-11T06:26:36.102Z,43.88
2023-02-11T06:29:05.298Z,44.08
2023-02-11T06:31:32.093Z,40.78
2023-02-11T06:33:59.291Z,47.40
2023-02-11T06:36:26.059Z,41.60
2023-02-11T06:38:52.869Z,47.75
2023-02-11T06:41:20.342Z,43.75
2023-02-11T06:43:47.735Z,47.58
2023-02-11T06:46:14.747Z,47.65
2023-02-11T06:48:43.773Z,44.83
2023-02-11T06:51:16.108Z,47.22
2023-02-11T06:53:46.155Z,52.13
2023-02-11T06:56:18.286Z,45.28
2023-02-11T06:58:45.181Z,55.65
2023-02-11T07:01:16.988Z,51.25
2023-02-11T07:03:45.196Z,55.13
2023-02-11T07:06:17.694Z,54.03
2023-02-11T07:08:45.909Z,54.05
2023-02-11T07:11:24.243Z,55.28
2023-02-11T07:13:52.992Z,55.72
2023-02-11T07:16:20.075Z,54.47
2023-02-11T07:18:50.214Z,61.70
2023-02-11T07:21:24.769Z,61.97
2023-02-11T07:23:51.728Z,60.42
2023-02-11T07:26:25.830Z,61.38
2023-02-11T07:28:55.884Z,63.28
2023-02-11T07:31:26.281Z,63.70
2023-02-11T07:33:54.712Z,58.88
2023-02-11T07:36:22.358Z,56.17
2023-02-11T07:38:51.539Z,60.58
2023-02-11T07:41:22.920Z,59.72
2023-02-11T07:43:49.854Z,59.58
2023-02-11T07:46:20.055Z,59.97
2023-02-11T07:48:47.235Z,70.05
2023-02-11T07:51:17.195Z,61.58
2023-02-11T07:53:44.424Z,60.03
2023-02-11T07:56:15.361Z,57.83
2023-02-11T07:58:43.109Z,68.97
2023-02-11T08:01:13.709Z,59.30
2023-02-11T08:03:43.468Z,62.20
2023-02-11T08:06:13.616Z,61.38
2023-02-11T08:08:43.336Z,55.60
2023-02-11T08:11:16.572Z,57.63
2023-02-11T08:13:43.516Z,62.30
2023-02-11T08:16:21.786Z,58.35
2023-02-11T08:18:49.200Z,61.88
2023-02-11T08:21:16.300Z,51.90
2023-02-11T08:23:49.668Z,58.45
2023-02-11T08:26:23.961Z,64.47
2023-02-11T08:28:52.795Z,61.80
2023-02-11T08:31:23.939Z,57.55
2023-02-11T08:33:54.504Z,57.80
2023-02-11T08:36:25.364Z,58.30
2023-02-11T08:38:57.075Z,56.95
2023-02-11T08:41:29.585Z,62.47
2023-02-11T08:43:56.297Z,55.55
2023-02-11T08:46:22.971Z,50.90
2023-02-11T08:48:49.748Z,45.20
2023-02-11T08:51:21.895Z,50.50
2023-02-11T08:53:49.376Z,52.40
2023-02-11T08:56:20.370Z,51.17
2023-02-11T08:58:47.589Z,53.85
2023-02-11T09:01:22.650Z,60.60
2023-02-11T09:03:49.918Z,55.38
2023-02-11T09:06:19.509Z,50.75
2023-02-11T09:08:53.172Z,49.42
2023-02-11T09:11:22.330Z,55.72
2023-02-11T09:13:54.164Z,58.58
2023-02-11T09:16:23.916Z,55.08
2023-02-11T09:18:53.814Z,52.15
2023-02-11T09:21:20.788Z,54.42
2023-02-11T09:23:50.247Z,49.95
2023-02-11T09:26:21.000Z,52.08
2023-02-11T09:28:48.420Z,50.28
2023-02-11T09:31:24.733Z,53.00
2023-02-11T09:33:54.494Z,50.45
2023-02-11T09:36:26.495Z,51.38
2023-02-11T09:38:57.419Z,57.03
2023-02-11T09:41:24.064Z,52.03
2023-02-11T09:43:56.910Z,45.65
2023-02-11T09:46:31.981Z,49.85
2023-02-11T09:49:04.658Z,44.05
2023-02-11T09:51:51.557Z,49.63
2023-02-11T09:54:34.028Z,44.83
2023-02-11T09:57:00.746Z,47.22
2023-02-11T09:59:29.716Z,43.55
2023-02-11T10:02:04.242Z,45.97
2023-02-11T10:05:22.294Z,49.53
2023-02-11T10:07:58.365Z,44.25
2023-02-11T10:10:52.703Z,48.95
2023-02-11T10:13:39.718Z,49.05
2023-02-11T10:16:54.699Z,47.80
2023-02-11T10:19:47.192Z,50.58
2023-02-11T10:22:26.961Z,49.45
2023-02-11T10:25:00.191Z,50.70
2023-02-11T10:27:33.987Z,49.58
2023-02-11T10:30:19.133Z,49.05
2023-02-11T10:32:48.620Z,43.28
2023-02-11T10:35:26.338Z,49.75
2023-02-11T10:37:55.669Z,46.13
2023-02-11T10:40:29.954Z,52.42
2023-02-11T10:43:02.823Z,52.42
2023-02-11T10:45:51.627Z,43.38
2023-02-11T10:48:39.110Z,52.22
2023-02-11T10:51:14.700Z,53.83
2023-02-11T10:56:12.314Z,49.85
2023-02-11T10:58:49.731Z,53.22
2023-02-11T11:01:24.841Z,50.65
2023-02-11T11:03:52.726Z,53.88
2023-02-11T11:06:35.718Z,49.60
2023-02-11T11:09:02.526Z,59.42
2023-02-11T11:11:33.610Z,55.90
2023-02-11T11:14:01.577Z,55.78
2023-02-11T11:16:36.206Z,55.38
2023-02-11T11:19:09.157Z,56.00
2023-02-11T11:21:47.408Z,55.80
2023-02-11T11:24:27.639Z,51.90
2023-02-11T11:26:58.061Z,52.05
2023-02-11T11:29:28.714Z,50.47
2023-02-11T11:32:04.200Z,52.75
2023-02-11T11:34:56.667Z,49.47
2023-02-11T11:37:34.788Z,56.13
2023-02-11T11:40:28.555Z,54.22
2023-02-11T11:43:22.601Z,51.55
2023-02-11T11:45:57.443Z,53.38
2023-02-11T11:48:41.329Z,53.28
2023-02-11T11:51:11.700Z,49.65
2023-02-11T11:53:53.424Z,55.70
2023-02-11T11:56:28.027Z,53.72
2023-02-11T11:59:00.436Z,56.15
2023-02-11T12:01:47.647Z,54.30
2023-02-11T12:04:23.153Z,54.92
2023-02-11T12:07:01.511Z,51.38
2023-02-11T12:09:49.748Z,66.05
2023-02-11T12:12:29.302Z,60.25
2023-02-11T12:15:16.241Z,55.78
2023-02-11T12:18:06.904Z,61.90
2023-02-11T12:20:58.160Z,62.17
2023-02-11T12:23:52.892Z,53.97
2023-02-11T12:26:26.455Z,52.60
2023-02-11T12:28:58.997Z,55.92
2023-02-11T12:31:53.506Z,53.20
2023-02-11T12:34:38.625Z,68.82
2023-02-11T12:37:33.440Z,63.03
2023-02-11T12:40:28.568Z,58.50
2023-02-11T12:43:25.574Z,70.07
2023-02-11T12:46:44.304Z,69.32
2023-02-11T12:49:52.280Z,67.78
2023-02-11T12:52:45.887Z,63.38
2023-02-11T12:55:26.793Z,67.70
2023-02-11T12:57:58.882Z,72.95
2023-02-11T13:00:48.311Z,70.18
2023-02-11T13:03:33.075Z,71.95
2023-02-11T13:06:08.386Z,69.25
2023-02-11T13:08:41.217Z,59.17
2023-02-11T13:11:17.495Z,68.05
2023-02-11T13:13:56.144Z,68.30
2023-02-11T13:16:35.556Z,69.68
2023-02-11T13:19:15.479Z,71.63
2023-02-11T13:22:03.292Z,66.63
2023-02-11T13:24:53.699Z,64.68
2023-02-11T13:28:06.950Z,66.57
2023-02-11T13:30:35.174Z,61.50
2023-02-11T13:33:04.414Z,64.93
2023-02-11T13:35:39.980Z,67.10
2023-02-11T13:38:21.643Z,62.55
2023-02-11T13:41:04.698Z,64.68
2023-02-11T13:43:34.045Z,68.60
2023-02-11T13:46:10.390Z,63.50
2023-02-11T13:48:52.540Z,65.20
2023-02-11T13:51:37.354Z,60.97
2023-02-11T13:54:05.948Z,64.70
2023-02-11T13:56:46.298Z,63.28
2023-02-11T13:59:24.956Z,64.18
2023-02-11T14:02:11.599Z,67.63
2023-02-11T14:05:23.086Z,69.18
2023-02-11T14:08:29.670Z,65.95
2023-02-11T14:11:12.236Z,68.90
2023-02-11T14:13:48.027Z,68.10
2023-02-11T14:18:55.924Z,75.40
2023-02-11T14:21:32.265Z,65.90
2023-02-11T14:24:01.759Z,73.05
2023-02-11T14:26:53.236Z,68.97
2023-02-11T14:29:22.040Z,69.63
2023-02-11T14:32:06.129Z,80.60
2023-02-11T14:34:57.133Z,72.53
2023-02-11T14:37:50.888Z,69.50
2023-02-11T14:40:38.840Z,63.03
2023-02-11T14:43:16.699Z,65.22
2023-02-11T14:45:48.021Z,70.60
2023-02-11T14:48:21.204Z,71.88
2023-02-11T14:51:10.560Z,67.10
2023-02-11T14:53:40.583Z,71.57
2023-02-11T14:56:27.867Z,71.65
2023-02-11T14:58:57.780Z,66.10
2023-02-11T15:01:40.500Z,62.80
2023-02-11T15:04:27.183Z,63.85
2023-02-11T15:06:59.253Z,68.38
2023-02-11T15:09:42.276Z,59.35
2023-02-11T15:12:23.733Z,61.45
2023-02-11T15:14:53.174Z,67.35
2023-02-11T15:17:24.544Z,62.28
2023-02-11T15:19:55.171Z,67.78
2023-02-11T15:22:29.740Z,59.28
2023-02-11T15:25:06.867Z,67.03
2023-02-11T15:27:41.547Z,67.25
2023-02-11T15:30:30.488Z,65.95
2023-02-11T15:33:00.477Z,60.30
2023-02-11T15:35:28.973Z,60.33
2023-02-11T15:37:57.437Z,63.03
2023-02-11T15:40:32.356Z,64.18
2023-02-11T15:43:04.120Z,59.10
2023-02-11T15:45:33.694Z,64.22
2023-02-11T15:48:12.576Z,59.72
2023-02-11T15:50:43.458Z,65.50
2023-02-11T15:53:30.161Z,66.30
2023-02-11T15:56:29.728Z,68.75
2023-02-11T15:59:02.346Z,74.30
2023-02-11T16:01:34.193Z,67.15
2023-02-11T16:04:02.401Z,67.70
2023-02-11T16:06:39.026Z,73.40
2023-02-11T16:09:08.814Z,78.43
2023-02-11T16:11:53.656Z,63.17
2023-02-11T16:14:21.806Z,61.83
2023-02-11T16:16:51.075Z,65.03
2023-02-11T16:19:20.289Z,68.15
2023-02-11T16:21:49.606Z,65.53
2023-02-11T16:24:21.493Z,64.22
2023-02-11T16:26:55.390Z,62.25
2023-02-11T16:29:30.038Z,66.68
2023-02-11T16:32:19.479Z,66.10
2023-02-11T16:34:46.473Z,66.32
2023-02-11T16:37:13.138Z,60.17
2023-02-11T16:39:39.824Z,65.53
2023-02-11T16:42:09.457Z,70.82
2023-02-11T16:44:38.578Z,70.20
2023-02-11T16:47:10.702Z,68.13
2023-02-11T16:49:40.581Z,72.20
2023-02-11T16:52:12.654Z,66.60
2023-02-11T16:54:41.664Z,62.58
2023-02-11T16:57:17.415Z,68.72
2023-02-11T16:59:47.482Z,68.25
2023-02-11T17:02:23.632Z,67.18
2023-02-11T17:04:52.707Z,63.85
2023-02-11T17:07:22.144Z,69.38
2023-02-11T17:09:48.795Z,69.22
2023-02-11T17:12:17.625Z,65.65
2023-02-11T17:14:46.599Z,76.07
2023-02-11T17:17:15.660Z,68.35
2023-02-11T17:19:42.313Z,68.10
2023-02-11T17:22:10.905Z,67.07
2023-02-11T17:24:40.596Z,73.07
2023-02-11T17:27:11.232Z,69.93
2023-02-11T17:29:40.502Z,71.90
2023-02-11T17:32:09.795Z,65.07
2023-02-11T17:34:36.512Z,69.47
2023-02-11T17:37:08.884Z,68.47
2023-02-11T17:39:39.806Z,69.75
2023-02-11T17:42:11.835Z,73.45
2023-02-11T17:44:43.302Z,66.53
2023-02-11T17:47:09.986Z,65.97
2023-02-11T17:49:36.705Z,67.97
2023-02-11T17:52:03.859Z,69.10
2023-02-11T17:54:30.563Z,67.22
2023-02-11T17:56:58.392Z,75.47
2023-02-11T17:59:31.565Z,76.95
2023-02-11T18:01:58.218Z,69.13
2023-02-11T18:04:27.292Z,73.53
2023-02-11T18:06:53.943Z,70.45
2023-02-11T18:09:21.132Z,71.00
2023-02-11T18:11:48.493Z,76.93
2023-02-11T18:14:18.022Z,80.35
2023-02-11T18:16:45.847Z,69.63
2023-02-11T18:19:12.975Z,73.68
2023-02-11T18:21:39.735Z,70.32
2023-02-11T18:24:08.740Z,72.88
2023-02-11T18:26:36.170Z,69.40
2023-02-11T18:29:03.857Z,71.82
2023-02-11T18:31:30.660Z,69.93
2023-02-11T18:33:57.816Z,71.40
2023-02-11T18:36:26.673Z,74.38
2023-02-11T18:38:54.203Z,80.60
2023-02-11T18:41:21.339Z,68.03
2023-02-11T18:43:49.055Z,72.90
2023-02-11T18:46:16.464Z,78.88
2023-02-11T18:48:44.758Z,71.15
2023-02-11T18:51:14.652Z,75.10
2023-02-11T18:53:41.685Z,74.65
2023-02-11T18:56:15.470Z,76.50
2023-02-11T18:58:42.171Z,75.20
2023-02-11T19:01:19.019Z,72.03
2023-02-11T19:03:48.328Z,79.43
2023-02-11T19:06:20.961Z,73.05
2023-02-11T19:08:47.956Z,81.88
2023-02-11T19:11:19.765Z,80.30
2023-02-11T19:13:52.374Z,82.50
2023-02-11T19:16:23.900Z,75.32
2023-02-11T19:18:50.549Z,77.47
2023-02-11T19:21:20.583Z,78.63
2023-02-11T19:23:49.492Z,85.65
2023-02-11T19:26:16.188Z,75.65
2023-02-11T19:28:43.028Z,80.40
2023-02-11T19:31:12.481Z,79.97
2023-02-11T19:33:43.803Z,78.65
2023-02-11T19:36:16.289Z,79.90
2023-02-11T19:38:44.214Z,78.97
2023-02-11T19:41:18.917Z,74.88
2023-02-11T19:43:52.594Z,77.72
2023-02-11T19:46:25.246Z,82.18
2023-02-11T19:48:53.081Z,76.65
2023-02-11T19:51:20.171Z,82.53
2023-02-11T19:53:48.040Z,73.97
2023-02-11T19:56:20.920Z,80.63
2023-02-11T19:58:55.045Z,76.93
2023-02-11T20:01:23.396Z,85.68
2023-02-11T20:03:57.724Z,78.82
2023-02-11T20:06:29.847Z,85.15
2023-02-11T20:09:00.821Z,83.68
2023-02-11T20:11:29.826Z,78.90
2023-02-11T20:14:00.756Z,87.35
2023-02-11T20:16:47.460Z,86.05
2023-02-11T20:19:17.984Z,86.93
2023-02-11T20:21:47.226Z,80.78
2023-02-11T20:24:17.376Z,80.70
2023-02-11T20:26:45.209Z,86.72
2023-02-11T20:29:12.100Z,80.80
2023-02-11T20:31:38.989Z,81.05
2023-02-11T20:34:07.984Z,86.45
2023-02-11T20:36:37.500Z,81.57
2023-02-11T20:39:10.189Z,81.80
2023-02-11T20:41:39.854Z,80.53
2023-02-11T20:44:08.446Z,84.60
2023-02-11T20:46:41.984Z,86.72
2023-02-11T20:49:18.723Z,94.47
2023-02-11T20:51:47.633Z,77.28
2023-02-11T20:54:19.454Z,87.60
2023-02-11T20:56:48.201Z,88.85
2023-02-11T20:59:16.775Z,82.15
2023-02-11T21:01:49.028Z,85.95
2023-02-11T21:04:20.513Z,85.18
2023-02-11T21:06:53.239Z,86.35
2023-02-11T21:09:24.393Z,82.13
2023-02-11T21:11:52.591Z,89.82
2023-02-11T21:14:22.149Z,90.32
2023-02-11T21:16:49.762Z,82.95
2023-02-11T21:19:16.941Z,90.05
2023-02-11T21:21:44.214Z,79.22
2023-02-11T21:24:11.818Z,78.40
2023-02-11T21:26:39.363Z,86.80
2023-02-11T21:29:09.771Z,82.50
2023-02-11T21:31:37.540Z,91.40
2023-02-11T21:34:05.492Z,83.60
2023-02-11T21:36:32.437Z,85.78
2023-02-11T21:39:00.136Z,86.93
2023-02-11T21:41:29.183Z,90.38
2023-02-11T21:43:56.781Z,82.70
2023-02-11T21:46:23.650Z,84.10
2023-02-11T21:48:53.018Z,78.05
2023-02-11T21:51:22.339Z,83.28
2023-02-11T21:53:58.871Z,84.75
2023-02-11T21:56:28.774Z,88.40
2023-02-11T21:59:00.411Z,83.68
2023-02-11T22:01:32.974Z,93.22
2023-02-11T22:04:00.082Z,86.68
2023-02-11T22:06:31.311Z,85.63
2023-02-11T22:08:58.896Z,89.80
2023-02-11T22:11:25.574Z,88.13
2023-02-11T22:13:56.208Z,89.15
2023-02-11T22:16:23.735Z,83.97
2023-02-11T22:18:51.321Z,76.88
2023-02-11T22:21:22.114Z,83.43
2023-02-11T22:23:49.518Z,86.25
2023-02-11T22:26:22.381Z,83.10
2023-02-11T22:28:50.299Z,84.60
2023-02-11T22:31:24.661Z,78.28
2023-02-11T22:33:51.512Z,82.95
2023-02-11T22:36:29.001Z,79.43
2023-02-11T22:38:56.155Z,80.75
2023-02-11T22:41:25.299Z,79.88
2023-02-11T22:43:56.355Z,81.53
2023-02-11T22:46:23.152Z,83.13
2023-02-11T22:48:50.193Z,82.82
2023-02-11T22:51:22.994Z,75.25
2023-02-11T22:53:54.060Z,77.47
2023-02-11T22:56:21.319Z,80.20
2023-02-11T22:58:48.373Z,76.75
2023-02-11T23:01:15.539Z,75.70
2023-02-11T23:03:42.291Z,75.85
2023-02-11T23:06:10.388Z,82.45
2023-02-11T23:08:40.788Z,75.47
2023-02-11T23:11:12.559Z,76.47
2023-02-11T23:13:42.809Z,71.80
2023-02-11T23:16:16.988Z,76.03
2023-02-11T23:18:44.844Z,81.45
2023-02-11T23:21:21.507Z,75.65
2023-02-11T23:23:49.545Z,69.85
2023-02-11T23:26:19.906Z,71.30
2023-02-11T23:28:46.656Z,71.28
2023-02-11T23:31:26.015Z,77.72
2023-02-11T23:33:55.582Z,80.32
2023-02-11T23:36:23.078Z,74.22
2023-02-11T23:38:52.326Z,75.68
2023-02-11T23:41:23.119Z,74.45
2023-02-11T23:43:57.498Z,77.30
2023-02-11T23:46:27.533Z,78.38
2023-02-11T23:48:54.567Z,78.10
2023-02-11T23:51:21.990Z,72.38
2023-02-11T23:53:49.606Z,74.30
2023-02-11T23:56:22.199Z,75.82
2023-02-11T23:58:50.341Z,74.13
